Hatton, Kentucky
Current Conditions -  °F | °C
As of 11:53 AM on Thursday 30 Oct 2014 (Local Time) from KFFT Reporting Station
Overcast Overcast  
Wind Chill: 48°   Ceiling: 3200
Heat Index: 48°   Visibility: 10mi
Dew Point: 33°   Wind: 0mph
Humidity: 56%   Direction: NA
Pressure: 30.16"   Gusts: NA
Location:  38.2128°N, 84.9741°W
Report Text: KFFT 301553Z AUTO 00000KT 10SM OVC032 09/01 A3016 RMK AO2 SLP215 T00890006
Loading
Personal Weather Stations






























Interactive Weather Map
Tropical Storm Tracking
New forecast layout! Learn more

10-Day Weather Forecast

Advertisements
Track Severe Weather on mobile